createdAt,value
2023-01-13T00:01:54.653Z,8.30
2023-01-13T00:04:22.808Z,8.40
2023-01-13T00:06:50.540Z,7.60
2023-01-13T00:09:18.117Z,8.40
2023-01-13T00:11:47.807Z,8.70
2023-01-13T00:14:15.433Z,13.50
2023-01-13T00:16:42.574Z,12.60
2023-01-13T00:19:09.747Z,9.50
2023-01-13T00:21:38.626Z,7.10
2023-01-13T00:24:06.425Z,23.20
2023-01-13T00:26:36.009Z,26.10
2023-01-13T00:29:03.534Z,20.90
2023-01-13T00:31:32.716Z,9.70
2023-01-13T00:34:00.928Z,8.90
2023-01-13T00:36:28.173Z,9.60
2023-01-13T00:38:56.638Z,8.60
2023-01-13T00:41:24.855Z,8.30
2023-01-13T00:43:52.186Z,7.50
2023-01-13T00:46:21.855Z,7.90
2023-01-13T00:48:49.977Z,8.70
2023-01-13T00:51:18.891Z,8.60
2023-01-13T00:53:49.658Z,12.70
2023-01-13T00:56:34.161Z,12.40
2023-01-13T00:59:13.727Z,9.20
2023-01-13T01:01:44.876Z,8.40
2023-01-13T01:04:15.726Z,8.80
2023-01-13T01:06:46.717Z,9.00
2023-01-13T01:09:17.758Z,8.30
2023-01-13T01:11:48.718Z,7.80
2023-01-13T01:14:19.709Z,7.60
2023-01-13T01:16:52.755Z,7.40
2023-01-13T01:19:23.850Z,8.90
2023-01-13T01:21:55.868Z,7.30
2023-01-13T01:24:26.782Z,7.90
2023-01-13T01:26:58.109Z,7.90
2023-01-13T01:29:27.818Z,8.00
2023-01-13T01:31:59.745Z,8.70
2023-01-13T01:34:30.856Z,10.20
2023-01-13T01:36:59.845Z,9.40
2023-01-13T01:39:30.790Z,9.70
2023-01-13T01:42:21.248Z,9.50
2023-01-13T01:45:01.977Z,9.70
2023-01-13T01:47:33.201Z,9.50
2023-01-13T01:50:05.826Z,10.00
2023-01-13T01:59:09.043Z,8.20
2023-01-13T02:01:37.040Z,8.30
2023-01-13T02:04:12.256Z,8.00
2023-01-13T02:06:39.204Z,8.10
2023-01-13T02:09:06.681Z,8.10
2023-01-13T02:11:53.653Z,8.40
2023-01-13T02:14:26.652Z,9.30
2023-01-13T02:17:19.129Z,9.60
2023-01-13T02:20:10.913Z,9.50
2023-01-13T02:22:46.085Z,7.90
2023-01-13T02:25:23.188Z,8.50
2023-01-13T02:28:06.714Z,8.40
2023-01-13T02:31:04.735Z,8.10
2023-01-13T02:33:56.234Z,8.80
2023-01-13T02:36:51.515Z,7.90
2023-01-13T02:39:28.287Z,8.70
2023-01-13T02:42:30.248Z,8.30
2023-01-13T02:45:01.591Z,6.50
2023-01-13T02:47:29.931Z,8.30
2023-01-13T02:50:08.544Z,7.90
2023-01-13T02:52:43.214Z,8.60
2023-01-13T02:55:38.538Z,7.70
2023-01-13T02:58:07.830Z,7.30
2023-01-13T03:00:38.838Z,8.00
2023-01-13T03:03:05.921Z,7.10
2023-01-13T03:05:34.083Z,8.10
2023-01-13T03:08:08.474Z,7.80
2023-01-13T03:10:53.982Z,7.50
2023-01-13T03:13:29.913Z,7.40
2023-01-13T03:16:05.065Z,7.10
2023-01-13T03:18:55.142Z,7.00
2023-01-13T03:21:39.286Z,7.40
2023-01-13T03:24:20.144Z,6.50
2023-01-13T03:26:55.843Z,7.00
2023-01-13T03:29:30.427Z,7.80
2023-01-13T03:32:45.231Z,7.50
2023-01-13T03:35:17.749Z,7.10
2023-01-13T03:37:56.889Z,9.00
2023-01-13T03:40:28.933Z,7.70
2023-01-13T03:43:22.028Z,7.20
2023-01-13T03:45:54.431Z,7.40
2023-01-13T03:48:21.854Z,7.30
2023-01-13T03:51:14.606Z,7.40
2023-01-13T03:53:56.714Z,7.20
2023-01-13T03:56:31.170Z,7.90
2023-01-13T03:58:58.219Z,8.00
2023-01-13T04:01:51.554Z,6.20
2023-01-13T04:04:26.224Z,8.10
2023-01-13T04:07:03.184Z,8.40
2023-01-13T04:09:48.622Z,9.20
2023-01-13T04:12:27.778Z,10.20
2023-01-13T04:14:54.715Z,10.50
2023-01-13T04:17:23.467Z,9.50
2023-01-13T04:19:51.176Z,7.30
2023-01-13T04:22:18.345Z,8.00
2023-01-13T04:24:45.220Z,7.90
2023-01-13T04:27:12.478Z,8.00
2023-01-13T04:29:39.737Z,10.20
2023-01-13T04:32:06.819Z,9.00
2023-01-13T04:34:36.458Z,9.80
2023-01-13T04:37:03.684Z,9.10
2023-01-13T04:39:32.864Z,8.10
2023-01-13T04:42:01.964Z,7.00
2023-01-13T04:44:34.955Z,7.30
2023-01-13T04:47:02.737Z,7.00
2023-01-13T04:49:29.795Z,7.90
2023-01-13T04:51:56.837Z,8.00
2023-01-13T04:54:23.935Z,7.60
2023-01-13T04:56:57.636Z,7.90
2023-01-13T04:59:25.277Z,7.60
2023-01-13T05:01:53.757Z,8.00
2023-01-13T05:04:22.246Z,10.50
2023-01-13T05:06:49.299Z,10.30
2023-01-13T05:09:16.371Z,9.20
2023-01-13T05:12:02.396Z,9.10
2023-01-13T05:14:48.720Z,9.00
2023-01-13T05:17:19.714Z,9.50
2023-01-13T05:19:47.236Z,7.20
2023-01-13T05:22:33.043Z,7.10
2023-01-13T05:25:20.499Z,6.50
2023-01-13T05:27:50.530Z,8.60
2023-01-13T05:30:18.910Z,8.00
2023-01-13T05:32:46.008Z,9.70
2023-01-13T05:35:15.125Z,8.40
2023-01-13T05:37:44.608Z,9.60
2023-01-13T05:40:34.580Z,10.60
2023-01-13T05:43:20.449Z,10.50
2023-01-13T05:45:59.261Z,11.50
2023-01-13T05:48:32.309Z,10.20
2023-01-13T05:50:59.634Z,9.20
2023-01-13T05:53:29.284Z,10.20
2023-01-13T05:55:56.942Z,10.60
2023-01-13T05:58:25.958Z,10.40
2023-01-13T06:00:59.654Z,8.40
2023-01-13T06:03:27.048Z,10.40
2023-01-13T06:05:58.535Z,7.90
2023-01-13T06:08:27.582Z,10.40
2023-01-13T06:11:06.366Z,10.90
2023-01-13T06:13:33.864Z,10.60
2023-01-13T06:16:01.154Z,11.20
2023-01-13T06:19:49.690Z,12.20
2023-01-13T06:22:33.064Z,12.50
2023-01-13T06:25:00.379Z,12.70
2023-01-13T06:27:27.728Z,13.30
2023-01-13T06:29:56.971Z,15.10
2023-01-13T06:32:29.748Z,16.30
2023-01-13T06:37:27.030Z,12.30
2023-01-13T06:39:58.712Z,13.00
2023-01-13T06:42:46.458Z,10.20
2023-01-13T06:45:13.958Z,11.00
2023-01-13T06:47:41.272Z,9.00
2023-01-13T06:50:09.008Z,13.10
2023-01-13T06:52:36.079Z,15.20
2023-01-13T06:55:03.676Z,11.80
2023-01-13T06:57:37.542Z,11.30
2023-01-13T07:00:05.258Z,11.70
2023-01-13T07:02:33.389Z,11.90
2023-01-13T07:05:00.704Z,13.20
2023-01-13T07:07:27.951Z,11.60
2023-01-13T07:09:55.332Z,13.50
2023-01-13T07:12:24.085Z,12.00
2023-01-13T07:15:18.426Z,11.80
2023-01-13T07:17:46.293Z,12.10
2023-01-13T07:20:14.763Z,13.50
2023-01-13T07:22:43.904Z,14.70
2023-01-13T07:25:13.660Z,13.30
2023-01-13T07:27:48.608Z,9.70
2023-01-13T07:30:16.640Z,8.80
2023-01-13T07:32:45.048Z,9.20
2023-01-13T07:35:12.508Z,12.10
2023-01-13T07:37:39.891Z,12.50
2023-01-13T07:40:09.188Z,13.90
2023-01-13T07:42:59.588Z,11.50
2023-01-13T07:45:44.989Z,12.50
2023-01-13T07:48:48.568Z,11.20
2023-01-13T07:51:16.953Z,13.40
2023-01-13T07:53:44.746Z,12.10
2023-01-13T07:56:12.258Z,15.10
2023-01-13T07:58:39.595Z,18.70
2023-01-13T08:01:13.114Z,16.90
2023-01-13T08:03:40.876Z,15.30
2023-01-13T08:06:09.037Z,12.80
2023-01-13T08:08:36.388Z,11.40
2023-01-13T08:11:05.742Z,11.30
2023-01-13T08:13:33.208Z,10.00
2023-01-13T08:16:02.758Z,11.50
2023-01-13T08:18:31.835Z,11.60
2023-01-13T08:21:02.382Z,9.00
2023-01-13T08:23:31.503Z,8.80
2023-01-13T08:26:02.636Z,9.60
2023-01-13T08:28:30.730Z,10.40
2023-01-13T08:31:05.596Z,11.50
2023-01-13T08:33:32.965Z,9.50
2023-01-13T08:36:06.142Z,10.40
2023-01-13T08:38:36.969Z,9.60
2023-01-13T08:41:11.890Z,10.40
2023-01-13T08:43:39.258Z,8.90
2023-01-13T08:46:06.523Z,9.80
2023-01-13T08:48:33.704Z,11.40
2023-01-13T08:51:02.806Z,11.20
2023-01-13T08:53:30.678Z,12.80
2023-01-13T08:55:57.849Z,11.30
2023-01-13T08:58:26.150Z,11.40
2023-01-13T09:01:29.327Z,8.90
2023-01-13T09:03:56.534Z,9.70
2023-01-13T09:06:24.332Z,11.00
2023-01-13T09:08:56.941Z,8.50
2023-01-13T09:11:54.216Z,11.40
2023-01-13T09:14:22.990Z,11.40
2023-01-13T09:16:51.285Z,10.80
2023-01-13T09:19:18.423Z,10.30
2023-01-13T09:21:46.811Z,11.50
2023-01-13T09:24:14.276Z,10.60
2023-01-13T09:26:41.453Z,9.90
2023-01-13T09:29:09.768Z,10.90
2023-01-13T09:31:36.948Z,11.70
2023-01-13T09:34:24.456Z,8.30
2023-01-13T09:36:52.441Z,8.60
2023-01-13T09:39:19.642Z,9.90
2023-01-13T09:42:07.871Z,9.70
2023-01-13T09:44:42.156Z,10.00
2023-01-13T09:47:21.376Z,10.30
2023-01-13T09:49:48.313Z,10.10
2023-01-13T09:52:19.995Z,9.40
2023-01-13T09:54:53.094Z,9.30
2023-01-13T09:57:24.704Z,9.50
2023-01-13T09:59:51.985Z,9.50
2023-01-13T10:02:46.200Z,10.60
2023-01-13T10:05:34.447Z,10.00
2023-01-13T10:08:04.934Z,10.10
2023-01-13T10:10:37.465Z,8.80
2023-01-13T10:13:22.266Z,9.30
2023-01-13T10:15:54.006Z,8.50
2023-01-13T10:19:01.991Z,9.00
2023-01-13T10:21:45.619Z,11.50
2023-01-13T10:24:16.030Z,9.90
2023-01-13T10:27:15.957Z,10.70
2023-01-13T10:29:43.277Z,9.80
2023-01-13T10:32:10.433Z,9.60
2023-01-13T10:34:50.625Z,8.00
2023-01-13T10:37:22.135Z,8.50
2023-01-13T10:39:49.768Z,7.30
2023-01-13T10:42:18.827Z,8.80
2023-01-13T10:44:56.524Z,8.30
2023-01-13T10:47:31.630Z,11.10
2023-01-13T10:49:59.404Z,10.60
2023-01-13T10:52:29.149Z,12.40
2023-01-13T10:54:56.451Z,13.30
2023-01-13T10:57:24.960Z,11.20
2023-01-13T10:59:52.691Z,12.00
2023-01-13T11:02:30.324Z,12.50
2023-01-13T11:05:02.477Z,11.70
2023-01-13T11:07:33.086Z,10.30
2023-01-13T11:10:16.656Z,9.10
2023-01-13T11:12:49.017Z,8.50
2023-01-13T11:15:19.258Z,9.30
2023-01-13T11:17:48.935Z,10.10
2023-01-13T11:20:36.741Z,10.60
2023-01-13T11:23:27.031Z,12.20
2023-01-13T11:26:16.352Z,11.80
2023-01-13T11:29:03.213Z,14.30
2023-01-13T11:31:34.021Z,13.60
2023-01-13T11:34:06.496Z,9.80
2023-01-13T11:36:45.743Z,10.70
2023-01-13T11:39:31.410Z,11.90
2023-01-13T11:42:23.680Z,13.20
2023-01-13T11:45:04.762Z,11.60
2023-01-13T11:47:32.063Z,13.70
2023-01-13T11:49:59.447Z,13.50
2023-01-13T11:52:54.361Z,13.30
2023-01-13T11:55:33.551Z,12.00
2023-01-13T11:58:19.863Z,11.80
2023-01-13T12:01:02.366Z,11.90
2023-01-13T12:03:37.916Z,12.60
2023-01-13T12:06:17.402Z,10.40
2023-01-13T12:09:04.861Z,8.90
2023-01-13T12:12:09.893Z,8.00
2023-01-13T12:14:52.727Z,8.40
2023-01-13T12:17:44.791Z,10.30
2023-01-13T12:20:38.341Z,7.70
2023-01-13T12:23:12.781Z,11.10
2023-01-13T12:25:44.928Z,22.20
2023-01-13T12:28:17.292Z,11.90
2023-01-13T12:30:53.089Z,13.10
2023-01-13T12:33:48.088Z,13.10
2023-01-13T12:36:45.469Z,10.70
2023-01-13T12:39:47.090Z,9.30
2023-01-13T12:42:32.869Z,12.20
2023-01-13T12:45:26.292Z,12.70
2023-01-13T12:47:53.611Z,9.70
2023-01-13T12:50:24.300Z,11.60
2023-01-13T12:52:55.210Z,10.30
2023-01-13T12:55:23.222Z,11.10
2023-01-13T12:57:58.263Z,8.60
2023-01-13T13:00:35.299Z,10.00
2023-01-13T13:03:14.483Z,10.60
2023-01-13T13:06:09.841Z,10.20
2023-01-13T13:09:10.865Z,9.30
2023-01-13T13:11:59.202Z,7.70
2023-01-13T13:14:41.373Z,9.10
2023-01-13T13:20:00.375Z,9.40
2023-01-13T13:22:28.233Z,10.00
2023-01-13T13:24:55.403Z,8.70
2023-01-13T13:27:27.775Z,8.60
2023-01-13T13:29:56.642Z,8.50
2023-01-13T13:32:45.362Z,9.60
2023-01-13T13:35:31.396Z,11.40
2023-01-13T13:38:20.732Z,10.90
2023-01-13T13:41:09.381Z,11.80
2023-01-13T13:43:59.499Z,10.20
2023-01-13T13:46:49.523Z,13.40
2023-01-13T13:49:18.513Z,13.20
2023-01-13T13:51:45.858Z,13.60
2023-01-13T13:54:15.721Z,16.20
2023-01-13T13:56:44.130Z,16.30
2023-01-13T13:59:12.617Z,17.10
2023-01-13T14:01:40.924Z,17.50
2023-01-13T14:04:29.443Z,15.20
2023-01-13T14:06:57.294Z,13.90
2023-01-13T14:09:26.504Z,12.50
2023-01-13T14:12:06.312Z,14.00
2023-01-13T14:14:33.830Z,13.60
2023-01-13T14:17:04.934Z,13.20
2023-01-13T14:19:35.237Z,14.70
2023-01-13T14:22:04.255Z,13.00
2023-01-13T14:24:32.818Z,12.30
2023-01-13T14:27:07.989Z,14.20
2023-01-13T14:29:35.041Z,12.80
2023-01-13T14:32:02.411Z,12.50
2023-01-13T14:34:32.240Z,14.70
2023-01-13T14:37:02.253Z,11.20
2023-01-13T14:39:39.907Z,11.40
2023-01-13T14:42:12.062Z,12.10
2023-01-13T14:44:42.664Z,11.90
2023-01-13T14:47:23.203Z,13.80
2023-01-13T14:50:02.706Z,14.70
2023-01-13T14:52:34.868Z,12.80
2023-01-13T14:55:09.525Z,15.70
2023-01-13T14:57:38.971Z,18.60
2023-01-13T15:00:16.562Z,20.70
2023-01-13T15:02:43.863Z,18.90
2023-01-13T15:05:18.229Z,12.10
2023-01-13T15:08:14.522Z,11.50
2023-01-13T15:11:02.119Z,11.50
2023-01-13T15:13:36.057Z,11.60
2023-01-13T15:16:05.299Z,13.40
2023-01-13T15:18:35.100Z,12.50
2023-01-13T15:21:02.245Z,15.30
2023-01-13T15:23:29.490Z,15.90
2023-01-13T15:25:56.732Z,15.50
2023-01-13T15:28:24.568Z,14.70
2023-01-13T15:30:52.648Z,20.90
2023-01-13T15:33:22.385Z,18.10
2023-01-13T15:35:51.213Z,15.90
2023-01-13T15:38:20.127Z,18.70
2023-01-13T15:40:49.759Z,15.50
2023-01-13T15:43:38.732Z,12.80
2023-01-13T15:46:30.370Z,12.70
2023-01-13T15:48:57.448Z,14.30
2023-01-13T15:51:25.795Z,13.20
2023-01-13T15:53:52.824Z,10.20
2023-01-13T15:56:24.639Z,10.10
2023-01-13T15:58:53.420Z,10.50
2023-01-13T16:01:21.707Z,12.40
2023-01-13T16:03:48.860Z,10.50
2023-01-13T16:06:19.103Z,10.20
2023-01-13T16:08:48.007Z,13.70
2023-01-13T16:11:15.480Z,13.50
2023-01-13T16:13:43.051Z,13.20
2023-01-13T16:16:30.193Z,12.60
2023-01-13T16:18:57.331Z,12.20
2023-01-13T16:21:24.842Z,10.90
2023-01-13T16:23:52.062Z,12.00
2023-01-13T16:26:21.231Z,10.50
2023-01-13T16:28:49.517Z,12.40
2023-01-13T16:31:31.304Z,13.20
2023-01-13T16:33:59.878Z,11.70
2023-01-13T16:36:28.112Z,9.80
2023-01-13T16:38:57.771Z,11.10
2023-01-13T16:41:27.613Z,9.60
2023-01-13T16:43:55.007Z,12.40
2023-01-13T16:46:26.540Z,12.60
2023-01-13T16:48:57.255Z,13.10
2023-01-13T16:51:24.570Z,10.20
2023-01-13T16:53:52.626Z,10.70
2023-01-13T16:56:28.490Z,10.50
2023-01-13T16:59:02.403Z,11.10
2023-01-13T17:01:32.831Z,12.70
2023-01-13T17:04:00.717Z,11.70
2023-01-13T17:06:40.409Z,13.20
2023-01-13T17:09:14.522Z,13.60
2023-01-13T17:11:42.079Z,12.10
2023-01-13T17:14:17.769Z,12.60
2023-01-13T17:16:48.395Z,12.50
2023-01-13T17:19:16.667Z,11.70
2023-01-13T17:21:44.186Z,13.40
2023-01-13T17:24:13.265Z,13.90
2023-01-13T17:26:47.137Z,14.00
2023-01-13T17:29:17.625Z,12.70
2023-01-13T17:31:45.714Z,14.00
2023-01-13T17:34:13.781Z,14.50
2023-01-13T17:36:42.959Z,13.80
2023-01-13T17:39:15.875Z,12.60
2023-01-13T17:41:43.499Z,12.20
2023-01-13T17:44:15.467Z,12.80
2023-01-13T17:46:45.093Z,15.00
2023-01-13T17:49:16.639Z,12.80
2023-01-13T17:51:44.466Z,10.90
2023-01-13T17:54:15.804Z,10.80
2023-01-13T17:56:45.961Z,8.80
2023-01-13T17:59:16.616Z,8.90
2023-01-13T18:01:47.664Z,10.10
2023-01-13T18:04:27.475Z,8.40
2023-01-13T18:06:59.593Z,8.00
2023-01-13T18:09:30.625Z,9.50
2023-01-13T18:12:01.757Z,13.40
2023-01-13T18:14:32.905Z,12.30
2023-01-13T18:17:04.719Z,11.00
2023-01-13T18:19:53.178Z,9.20
2023-01-13T18:22:44.585Z,13.80
2023-01-13T18:25:32.542Z,12.00
2023-01-13T18:28:03.500Z,10.40
2023-01-13T18:30:35.692Z,8.50
2023-01-13T18:33:08.613Z,10.30
2023-01-13T18:38:36.851Z,10.20
2023-01-13T18:41:25.744Z,11.00
2023-01-13T18:43:53.163Z,10.90
2023-01-13T18:46:21.197Z,10.10
2023-01-13T18:48:48.290Z,10.10
2023-01-13T18:51:15.809Z,9.60
2023-01-13T18:53:44.804Z,10.10
2023-01-13T18:56:12.903Z,10.70
2023-01-13T18:58:51.832Z,10.80
2023-01-13T19:01:21.977Z,12.10
2023-01-13T19:04:05.430Z,12.00
2023-01-13T19:06:33.842Z,10.70
2023-01-13T19:09:08.275Z,13.10
2023-01-13T19:11:35.987Z,12.70
2023-01-13T19:14:03.785Z,13.80
2023-01-13T19:16:31.582Z,10.40
2023-01-13T19:18:59.569Z,10.20
2023-01-13T19:21:27.405Z,13.30
2023-01-13T19:23:55.198Z,18.50
2023-01-13T19:26:22.419Z,14.90
2023-01-13T19:28:50.225Z,13.60
2023-01-13T19:31:19.947Z,13.20
2023-01-13T19:33:49.157Z,11.40
2023-01-13T19:36:16.881Z,10.40
2023-01-13T19:38:44.795Z,10.90
2023-01-13T19:41:33.171Z,12.00
2023-01-13T19:44:18.931Z,12.50
2023-01-13T19:46:46.045Z,12.70
2023-01-13T19:49:14.246Z,12.40
2023-01-13T19:51:41.569Z,12.90
2023-01-13T19:54:08.851Z,10.90
2023-01-13T19:56:37.959Z,14.20
2023-01-13T19:59:05.835Z,12.40
2023-01-13T20:01:35.661Z,11.20
2023-01-13T20:04:02.966Z,9.70
2023-01-13T20:06:32.396Z,8.50
2023-01-13T20:08:59.765Z,7.90
2023-01-13T20:11:32.910Z,10.00
2023-01-13T20:14:01.169Z,10.10
2023-01-13T20:16:29.306Z,8.40
2023-01-13T20:18:56.833Z,9.00
2023-01-13T20:21:24.046Z,9.20
2023-01-13T20:23:52.760Z,9.70
2023-01-13T20:26:21.644Z,8.60
2023-01-13T20:28:48.876Z,8.40
2023-01-13T20:31:16.901Z,7.20
2023-01-13T20:33:44.084Z,9.20
2023-01-13T20:36:26.768Z,10.60
2023-01-13T20:38:59.131Z,8.30
2023-01-13T20:41:45.402Z,9.10
2023-01-13T20:44:15.220Z,9.50
2023-01-13T20:46:43.327Z,8.90
2023-01-13T20:49:11.525Z,8.60
2023-01-13T20:51:39.620Z,8.70
2023-01-13T20:54:07.167Z,10.10
2023-01-13T20:56:35.552Z,9.70
2023-01-13T20:59:03.338Z,9.30
2023-01-13T21:01:31.717Z,9.40
2023-01-13T21:03:59.641Z,8.60
2023-01-13T21:06:27.607Z,9.00
2023-01-13T21:08:57.785Z,8.10
2023-01-13T21:15:30.646Z,9.80
2023-01-13T21:18:17.383Z,9.80
2023-01-13T21:20:44.613Z,8.10
2023-01-13T21:23:13.482Z,10.00
2023-01-13T21:25:41.374Z,9.80
2023-01-13T21:28:11.227Z,8.90
2023-01-13T21:30:39.155Z,8.10
2023-01-13T21:33:07.261Z,9.20
2023-01-13T21:35:38.509Z,15.90
2023-01-13T21:38:05.813Z,12.50
2023-01-13T21:40:36.775Z,10.90
2023-01-13T21:43:22.618Z,15.00
2023-01-13T21:46:44.012Z,10.70
2023-01-13T21:49:11.141Z,8.00
2023-01-13T21:51:39.772Z,7.70
2023-01-13T21:54:07.735Z,7.10
2023-01-13T21:56:35.168Z,9.10
2023-01-13T21:59:02.364Z,9.40
2023-01-13T22:01:30.814Z,12.60
2023-01-13T22:04:13.964Z,12.20
2023-01-13T22:09:08.653Z,9.90
2023-01-13T22:11:36.236Z,9.90
2023-01-13T22:14:07.010Z,11.50
2023-01-13T22:16:39.830Z,12.20
2023-01-13T22:19:08.694Z,9.80
2023-01-13T22:21:36.634Z,10.20
2023-01-13T22:24:05.360Z,10.90
2023-01-13T22:26:33.551Z,8.80
2023-01-13T22:29:02.364Z,9.60
2023-01-13T22:31:31.092Z,11.60
2023-01-13T22:34:02.063Z,8.50
2023-01-13T22:36:29.515Z,8.30
2023-01-13T22:38:56.932Z,8.80
2023-01-13T22:41:27.843Z,9.60
2023-01-13T22:43:55.311Z,10.80
2023-01-13T22:46:23.108Z,11.10
2023-01-13T22:48:53.339Z,10.90
2023-01-13T22:51:22.193Z,9.90
2023-01-13T22:53:49.838Z,11.80
2023-01-13T22:56:21.399Z,13.40
2023-01-13T22:58:52.766Z,14.30
2023-01-13T23:01:20.103Z,8.50
2023-01-13T23:03:47.654Z,11.10
2023-01-13T23:06:15.419Z,12.20
2023-01-13T23:08:42.532Z,11.70
2023-01-13T23:11:11.227Z,11.20
2023-01-13T23:13:39.448Z,14.20
2023-01-13T23:16:12.075Z,16.10
2023-01-13T23:18:47.448Z,14.70
2023-01-13T23:21:19.308Z,16.10
2023-01-13T23:23:46.568Z,11.70
2023-01-13T23:26:15.688Z,16.40
2023-01-13T23:28:42.924Z,15.90
2023-01-13T23:31:15.565Z,17.70
2023-01-13T23:33:43.716Z,17.80
2023-01-13T23:36:19.281Z,16.90
2023-01-13T23:38:47.003Z,14.30
2023-01-13T23:41:15.741Z,14.80
2023-01-13T23:43:42.939Z,16.90
2023-01-13T23:46:16.075Z,16.60
2023-01-13T23:48:43.409Z,14.80
2023-01-13T23:51:11.429Z,17.40
2023-01-13T23:53:42.919Z,17.10
2023-01-13T23:56:15.635Z,16.30
